createdAt,value
2022-08-03T00:01:41.030Z,55.10
2022-08-03T00:04:09.718Z,55.10
2022-08-03T00:06:37.356Z,55.20
2022-08-03T00:09:07.773Z,55.30
2022-08-03T00:11:35.546Z,55.20
2022-08-03T00:14:06.572Z,55.30
2022-08-03T00:16:33.706Z,55.40
2022-08-03T00:19:02.436Z,55.40
2022-08-03T00:21:29.859Z,55.40
2022-08-03T00:23:56.991Z,55.40
2022-08-03T00:26:23.902Z,55.50
2022-08-03T00:28:50.946Z,55.50
2022-08-03T00:31:23.057Z,55.60
2022-08-03T00:34:05.121Z,55.80
2022-08-03T00:36:33.160Z,56.00
2022-08-03T00:39:00.107Z,55.90
2022-08-03T00:41:27.294Z,56.00
2022-08-03T00:43:54.266Z,55.90
2022-08-03T00:46:22.453Z,56.00
2022-08-03T00:48:53.923Z,56.00
2022-08-03T00:51:22.360Z,56.00
2022-08-03T00:53:50.895Z,56.00
2022-08-03T00:56:18.498Z,56.00
2022-08-03T00:58:46.821Z,56.10
2022-08-03T01:01:15.012Z,56.10
2022-08-03T01:03:42.675Z,56.10
2022-08-03T01:07:17.441Z,56.20
2022-08-03T01:10:03.137Z,55.70
2022-08-03T01:12:39.565Z,56.20
2022-08-03T01:15:20.934Z,56.40
2022-08-03T01:17:57.415Z,56.40
2022-08-03T01:20:30.762Z,56.70
2022-08-03T01:23:17.489Z,56.80
2022-08-03T01:26:18.071Z,56.90
2022-08-03T01:29:49.721Z,56.90
2022-08-03T01:32:58.670Z,57.30
2022-08-03T01:35:32.755Z,57.00
2022-08-03T01:38:10.085Z,57.10
2022-08-03T01:40:41.192Z,57.30
2022-08-03T01:43:12.675Z,57.30
2022-08-03T01:45:43.545Z,57.40
2022-08-03T01:48:15.848Z,57.50
2022-08-03T01:50:45.139Z,57.60
2022-08-03T01:53:16.946Z,57.60
2022-08-03T01:55:48.793Z,57.60
2022-08-03T01:58:19.890Z,57.60
2022-08-03T02:00:50.200Z,57.60
2022-08-03T02:03:20.152Z,57.60
2022-08-03T02:05:57.201Z,57.70
2022-08-03T02:08:34.219Z,57.60
2022-08-03T02:11:02.675Z,57.70
2022-08-03T02:13:32.028Z,57.70
2022-08-03T02:15:59.697Z,57.70
2022-08-03T02:18:28.837Z,57.90
2022-08-03T02:20:57.248Z,58.00
2022-08-03T02:23:24.186Z,58.10
2022-08-03T02:25:58.256Z,58.20
2022-08-03T02:28:38.450Z,58.20
2022-08-03T02:31:12.928Z,58.30
2022-08-03T02:33:48.999Z,58.40
2022-08-03T02:36:19.070Z,58.50
2022-08-03T02:38:51.283Z,58.50
2022-08-03T02:41:24.844Z,58.50
2022-08-03T02:44:06.033Z,58.60
2022-08-03T02:46:39.086Z,58.60
2022-08-03T02:49:42.138Z,58.70
2022-08-03T02:51:56.834Z,58.80
2022-08-03T02:54:26.855Z,58.80
2022-08-03T02:56:58.549Z,58.90
2022-08-03T02:59:28.303Z,58.90
2022-08-03T03:01:55.797Z,58.90
2022-08-03T03:04:24.956Z,58.80
2022-08-03T03:07:01.861Z,58.90
2022-08-03T03:09:40.359Z,58.90
2022-08-03T03:12:12.582Z,59.00
2022-08-03T03:14:42.545Z,59.00
2022-08-03T03:17:11.688Z,58.90
2022-08-03T03:19:40.928Z,59.10
2022-08-03T03:22:09.665Z,59.00
2022-08-03T03:24:39.940Z,59.20
2022-08-03T03:27:08.028Z,59.30
2022-08-03T03:29:38.464Z,59.30
2022-08-03T03:32:12.534Z,59.30
2022-08-03T03:34:39.849Z,59.30
2022-08-03T03:37:11.244Z,59.40
2022-08-03T03:39:38.166Z,59.50
2022-08-03T03:42:05.577Z,59.60
2022-08-03T03:44:32.582Z,59.50
2022-08-03T03:46:59.940Z,59.50
2022-08-03T03:49:27.033Z,59.60
2022-08-03T03:51:55.439Z,59.60
2022-08-03T03:54:22.518Z,59.60
2022-08-03T03:56:52.717Z,59.70
2022-08-03T03:59:19.667Z,59.70
2022-08-03T04:01:46.858Z,59.80
2022-08-03T04:04:43.690Z,59.90
2022-08-03T04:07:29.249Z,59.90
2022-08-03T04:10:15.989Z,60.00
2022-08-03T04:12:50.062Z,60.10
2022-08-03T04:15:22.243Z,60.10
2022-08-03T04:17:52.515Z,60.20
2022-08-03T04:20:22.122Z,60.30
2022-08-03T04:22:52.890Z,60.40
2022-08-03T04:25:25.688Z,60.60
2022-08-03T04:28:08.009Z,60.60
2022-08-03T04:30:51.710Z,60.70
2022-08-03T04:33:21.366Z,60.70
2022-08-03T04:36:01.657Z,60.80
2022-08-03T04:38:38.984Z,60.90
2022-08-03T04:41:07.977Z,61.00
2022-08-03T04:43:36.597Z,60.90
2022-08-03T04:46:05.177Z,60.80
2022-08-03T04:48:32.326Z,60.70
2022-08-03T04:51:00.833Z,60.80
2022-08-03T04:53:27.812Z,60.90
2022-08-03T04:55:54.631Z,61.00
2022-08-03T04:58:21.476Z,61.20
2022-08-03T05:00:51.270Z,61.20
2022-08-03T05:03:20.406Z,61.10
2022-08-03T05:05:53.584Z,60.90
2022-08-03T05:08:29.442Z,60.80
2022-08-03T05:10:59.361Z,60.70
2022-08-03T05:13:26.729Z,60.70
2022-08-03T05:15:53.655Z,60.70
2022-08-03T05:18:21.454Z,60.70
2022-08-03T05:20:48.414Z,60.60
2022-08-03T05:23:18.787Z,60.30
2022-08-03T05:25:49.728Z,60.20
2022-08-03T05:28:17.188Z,60.40
2022-08-03T05:30:46.477Z,60.30
2022-08-03T05:33:13.763Z,60.40
2022-08-03T05:35:57.603Z,60.20
2022-08-03T05:38:34.170Z,60.40
2022-08-03T05:41:22.540Z,60.30
2022-08-03T05:43:53.696Z,60.00
2022-08-03T05:46:22.200Z,60.00
2022-08-03T05:48:49.408Z,60.00
2022-08-03T05:51:16.761Z,60.00
2022-08-03T05:53:44.481Z,59.80
2022-08-03T05:56:15.045Z,59.60
2022-08-03T05:58:52.714Z,59.50
2022-08-03T06:01:24.488Z,58.40
2022-08-03T06:03:52.233Z,59.10
2022-08-03T06:06:19.407Z,59.00
2022-08-03T06:08:48.775Z,59.00
2022-08-03T06:11:16.525Z,58.80
2022-08-03T06:13:44.485Z,58.70
2022-08-03T06:16:11.597Z,59.10
2022-08-03T06:18:40.399Z,58.60
2022-08-03T06:21:14.124Z,58.20
2022-08-03T06:23:54.810Z,58.10
2022-08-03T06:26:24.486Z,58.10
2022-08-03T06:28:53.951Z,58.00
2022-08-03T06:31:25.942Z,57.70
2022-08-03T06:34:34.507Z,57.60
2022-08-03T06:36:48.478Z,57.30
2022-08-03T06:39:15.389Z,57.10
2022-08-03T06:41:44.699Z,57.10
2022-08-03T06:44:12.757Z,57.20
2022-08-03T06:46:40.041Z,57.10
2022-08-03T06:49:08.064Z,57.00
2022-08-03T06:52:06.107Z,56.50
2022-08-03T06:54:22.336Z,56.60
2022-08-03T06:56:49.299Z,56.30
2022-08-03T07:00:06.415Z,56.30
2022-08-03T07:02:03.227Z,56.30
2022-08-03T07:04:30.226Z,56.40
2022-08-03T07:06:57.253Z,55.90
2022-08-03T07:09:24.371Z,55.70
2022-08-03T07:11:51.212Z,56.10
2022-08-03T07:14:18.313Z,55.60
2022-08-03T07:16:45.214Z,55.30
2022-08-03T07:19:12.284Z,55.00
2022-08-03T07:21:39.268Z,55.00
2022-08-03T07:24:06.509Z,54.70
2022-08-03T07:26:33.415Z,54.60
2022-08-03T07:29:01.504Z,54.70
2022-08-03T07:31:28.455Z,54.60
2022-08-03T07:34:01.429Z,54.60
2022-08-03T07:36:28.378Z,54.20
2022-08-03T07:38:55.271Z,54.30
2022-08-03T07:41:22.279Z,53.90
2022-08-03T07:43:49.206Z,53.70
2022-08-03T07:46:16.234Z,53.40
2022-08-03T07:48:43.121Z,53.10
2022-08-03T07:51:09.991Z,52.90
2022-08-03T07:53:37.822Z,52.70
2022-08-03T07:56:14.335Z,52.50
2022-08-03T07:58:41.193Z,52.50
2022-08-03T08:01:08.350Z,52.40
2022-08-03T08:03:52.309Z,52.20
2022-08-03T08:06:21.886Z,51.90
2022-08-03T08:08:48.816Z,51.70
2022-08-03T08:11:16.003Z,51.30
2022-08-03T08:13:42.971Z,51.00
2022-08-03T08:16:09.903Z,50.50
2022-08-03T08:18:36.737Z,50.60
2022-08-03T08:21:03.736Z,50.10
2022-08-03T08:23:42.428Z,50.00
2022-08-03T08:26:11.444Z,49.60
2022-08-03T08:28:38.395Z,49.20
2022-08-03T08:31:05.306Z,48.80
2022-08-03T08:34:03.511Z,48.50
2022-08-03T08:36:20.199Z,48.30
2022-08-03T08:38:47.612Z,48.40
2022-08-03T08:41:16.506Z,48.90
2022-08-03T08:43:43.693Z,48.80
2022-08-03T08:46:23.274Z,48.90
2022-08-03T08:48:53.620Z,46.00
2022-08-03T08:51:22.680Z,47.70
2022-08-03T08:53:54.466Z,47.00
2022-08-03T08:56:26.005Z,44.20
2022-08-03T08:58:59.440Z,45.40
2022-08-03T09:01:27.655Z,45.30
2022-08-03T09:03:55.154Z,44.50
2022-08-03T09:06:23.525Z,43.60
2022-08-03T09:08:50.496Z,42.80
2022-08-03T09:11:53.332Z,42.30
2022-08-03T09:14:36.698Z,39.30
2022-08-03T09:17:02.220Z,41.20
2022-08-03T09:19:31.991Z,40.60
2022-08-03T09:22:16.665Z,40.30
2022-08-03T09:25:23.185Z,38.30
2022-08-03T09:27:50.361Z,36.60
2022-08-03T09:30:34.767Z,39.20
2022-08-03T09:33:08.950Z,38.40
2022-08-03T09:35:53.587Z,38.40
2022-08-03T09:38:26.364Z,35.20
2022-08-03T09:40:59.450Z,35.40
2022-08-03T09:43:28.135Z,37.00
2022-08-03T09:46:04.815Z,37.00
2022-08-03T09:48:37.235Z,33.70
2022-08-03T09:51:13.867Z,35.60
2022-08-03T09:53:59.655Z,35.30
2022-08-03T09:56:44.665Z,34.80
2022-08-03T09:59:14.057Z,32.70
2022-08-03T10:01:41.931Z,34.50
2022-08-03T10:04:15.004Z,34.40
2022-08-03T10:06:43.295Z,31.80
2022-08-03T10:09:14.383Z,33.70
2022-08-03T10:11:43.680Z,32.40
2022-08-03T10:14:19.024Z,32.80
2022-08-03T10:16:47.812Z,32.30
2022-08-03T10:19:15.880Z,32.10
2022-08-03T10:21:51.238Z,31.70
2022-08-03T10:24:27.137Z,30.40
2022-08-03T10:27:23.649Z,30.90
2022-08-03T10:29:56.591Z,30.80
2022-08-03T10:32:38.537Z,29.40
2022-08-03T10:35:20.914Z,28.70
2022-08-03T10:38:12.379Z,28.60
2022-08-03T10:40:48.877Z,29.30
2022-08-03T10:43:36.294Z,30.00
2022-08-03T10:46:08.491Z,28.60
2022-08-03T10:48:36.985Z,29.20
2022-08-03T10:51:04.860Z,29.30
2022-08-03T10:53:54.834Z,29.70
2022-08-03T10:56:53.526Z,27.80
2022-08-03T10:59:46.119Z,28.20
2022-08-03T11:02:16.682Z,28.80
2022-08-03T11:04:47.044Z,28.40
2022-08-03T11:07:23.383Z,28.80
2022-08-03T11:09:56.571Z,27.60
2022-08-03T11:12:32.300Z,27.50
2022-08-03T11:15:09.013Z,27.60
2022-08-03T11:17:46.859Z,27.10
2022-08-03T11:20:49.994Z,28.20
2022-08-03T11:24:04.021Z,26.60
2022-08-03T11:26:25.131Z,27.60
2022-08-03T11:28:52.033Z,28.20
2022-08-03T11:31:49.793Z,27.10
2022-08-03T11:34:17.514Z,26.00
2022-08-03T11:37:23.332Z,26.60
2022-08-03T11:39:54.462Z,26.00
2022-08-03T11:42:24.685Z,26.40
2022-08-03T11:44:54.406Z,26.00
2022-08-03T11:47:23.180Z,26.20
2022-08-03T11:49:54.197Z,27.00
2022-08-03T11:52:26.975Z,26.60
2022-08-03T11:54:56.981Z,26.60
2022-08-03T11:59:01.746Z,26.70
2022-08-03T12:00:26.064Z,26.10
2022-08-03T12:03:12.272Z,27.00
2022-08-03T12:05:52.704Z,27.00
2022-08-03T12:08:34.292Z,27.40
2022-08-03T12:11:06.566Z,27.10
2022-08-03T12:14:33.127Z,28.40
2022-08-03T12:16:38.460Z,27.50
2022-08-03T12:19:09.227Z,28.20
2022-08-03T12:21:57.292Z,27.70
2022-08-03T12:24:25.013Z,28.00
2022-08-03T12:26:58.642Z,28.50
2022-08-03T12:29:27.172Z,28.40
2022-08-03T12:31:56.121Z,28.60
2022-08-03T12:34:23.404Z,28.60
2022-08-03T12:36:56.706Z,28.90
2022-08-03T12:39:26.601Z,28.20
2022-08-03T12:41:56.635Z,28.90
2022-08-03T12:44:36.122Z,28.80
2022-08-03T12:47:06.695Z,27.80
2022-08-03T12:49:47.369Z,28.40
2022-08-03T12:52:14.905Z,27.40
2022-08-03T12:54:42.490Z,28.40
2022-08-03T12:57:15.939Z,28.70
2022-08-03T12:59:53.708Z,28.30
2022-08-03T13:02:26.373Z,28.60
2022-08-03T13:04:54.933Z,27.70
2022-08-03T13:07:23.482Z,28.80
2022-08-03T13:09:54.058Z,29.00
2022-08-03T13:12:26.136Z,28.90
2022-08-03T13:14:57.181Z,28.50
2022-08-03T13:17:25.463Z,28.60
2022-08-03T13:19:53.495Z,29.10
2022-08-03T13:22:31.034Z,28.90
2022-08-03T13:24:58.211Z,28.10
2022-08-03T13:28:04.930Z,29.20
2022-08-03T13:30:14.568Z,29.20
2022-08-03T13:32:51.836Z,29.40
2022-08-03T13:35:18.703Z,29.30
2022-08-03T13:37:48.911Z,28.80
2022-08-03T13:40:16.052Z,29.10
2022-08-03T13:42:44.039Z,29.00
2022-08-03T13:45:11.402Z,29.30
2022-08-03T13:47:38.301Z,29.10
2022-08-03T13:50:05.619Z,29.60
2022-08-03T13:52:34.817Z,29.90
2022-08-03T13:55:07.018Z,30.40
2022-08-03T13:58:11.927Z,30.00
2022-08-03T14:00:28.941Z,29.50
2022-08-03T14:03:05.184Z,28.70
2022-08-03T14:05:35.786Z,28.20
2022-08-03T14:08:05.325Z,27.50
2022-08-03T14:10:37.602Z,27.90
2022-08-03T14:13:05.959Z,27.40
2022-08-03T14:15:37.991Z,27.40
2022-08-03T14:18:15.616Z,27.20
2022-08-03T14:20:56.800Z,26.80
2022-08-03T14:23:25.703Z,28.60
2022-08-03T14:25:53.147Z,27.60
2022-08-03T14:28:25.094Z,27.80
2022-08-03T14:30:54.082Z,26.90
2022-08-03T14:33:20.945Z,27.90
2022-08-03T14:35:48.987Z,29.10
2022-08-03T14:38:17.234Z,28.10
2022-08-03T14:40:44.686Z,27.50
2022-08-03T14:43:11.842Z,27.10
2022-08-03T14:45:40.102Z,26.20
2022-08-03T14:50:24.525Z,25.90
2022-08-03T14:50:55.160Z,25.70
2022-08-03T14:53:22.685Z,25.50
2022-08-03T14:55:51.976Z,25.50
2022-08-03T14:58:21.979Z,25.40
2022-08-03T15:00:51.660Z,25.10
2022-08-03T15:03:23.393Z,25.10
2022-08-03T15:05:52.945Z,24.70
2022-08-03T15:08:20.703Z,24.80
2022-08-03T15:10:49.139Z,24.40
2022-08-03T15:13:17.088Z,24.70
2022-08-03T15:15:44.194Z,25.40
2022-08-03T15:18:11.386Z,24.90
2022-08-03T15:20:46.879Z,24.30
2022-08-03T15:23:15.929Z,24.00
2022-08-03T15:26:28.840Z,23.80
2022-08-03T15:28:32.450Z,23.50
2022-08-03T15:31:00.010Z,23.40
2022-08-03T15:33:26.932Z,23.50
2022-08-03T15:35:54.521Z,23.30
2022-08-03T15:38:26.021Z,23.10
2022-08-03T15:40:54.866Z,23.20
2022-08-03T15:43:23.630Z,23.40
2022-08-03T15:46:12.710Z,23.50
2022-08-03T15:48:37.938Z,23.30
2022-08-03T15:51:05.431Z,23.00
2022-08-03T15:53:33.591Z,22.90
2022-08-03T15:56:04.227Z,22.80
2022-08-03T15:59:09.545Z,23.00
2022-08-03T16:01:21.843Z,22.70
2022-08-03T16:03:48.782Z,22.80
2022-08-03T16:06:15.914Z,22.80
2022-08-03T16:08:43.269Z,22.90
2022-08-03T16:11:10.995Z,22.80
2022-08-03T16:14:13.872Z,22.60
2022-08-03T16:16:24.701Z,22.80
2022-08-03T16:18:51.572Z,22.80
2022-08-03T16:21:19.534Z,22.70
2022-08-03T16:23:50.104Z,22.70
2022-08-03T16:26:18.124Z,22.70
2022-08-03T16:28:44.994Z,22.70
2022-08-03T16:31:11.869Z,22.50
2022-08-03T16:33:38.727Z,22.60
2022-08-03T16:36:05.783Z,22.60
2022-08-03T16:38:32.714Z,22.60
2022-08-03T16:40:59.596Z,22.60
2022-08-03T16:43:26.548Z,22.70
2022-08-03T16:45:53.486Z,22.70
2022-08-03T16:48:20.567Z,22.80
2022-08-03T16:50:48.761Z,22.70
2022-08-03T16:53:16.858Z,22.60
2022-08-03T16:56:00.488Z,22.70
2022-08-03T16:58:41.367Z,22.70
2022-08-03T17:01:20.829Z,22.60
2022-08-03T17:04:03.479Z,22.40
2022-08-03T17:06:45.209Z,22.40
2022-08-03T17:09:21.085Z,22.60
2022-08-03T17:11:52.035Z,22.50
2022-08-03T17:14:22.849Z,22.80
2022-08-03T17:17:04.775Z,23.00
2022-08-03T17:19:40.489Z,22.90
2022-08-03T17:22:20.819Z,23.00
2022-08-03T17:24:54.043Z,23.10
2022-08-03T17:28:49.456Z,23.00
2022-08-03T17:30:18.929Z,23.20
2022-08-03T17:32:57.634Z,23.20
2022-08-03T17:35:34.301Z,23.20
2022-08-03T17:38:06.591Z,23.20
2022-08-03T17:40:34.823Z,23.10
2022-08-03T17:44:13.938Z,23.30
2022-08-03T17:45:54.950Z,23.80
2022-08-03T17:48:25.026Z,23.30
2022-08-03T17:51:00.789Z,23.40
2022-08-03T17:53:33.484Z,23.50
2022-08-03T17:56:44.313Z,23.70
2022-08-03T17:59:52.200Z,24.00
2022-08-03T18:02:54.576Z,24.30
2022-08-03T18:06:10.746Z,24.40
2022-08-03T18:08:41.838Z,24.70
2022-08-03T18:11:21.481Z,25.20
2022-08-03T18:14:04.842Z,25.20
2022-08-03T18:17:00.339Z,25.40
2022-08-03T18:20:03.367Z,25.80
2022-08-03T18:22:20.768Z,25.90
2022-08-03T18:24:50.040Z,26.10
2022-08-03T18:27:19.434Z,26.20
2022-08-03T18:29:47.200Z,26.40
2022-08-03T18:32:15.539Z,26.30
2022-08-03T18:34:53.508Z,27.10
2022-08-03T18:37:25.364Z,26.70
2022-08-03T18:39:57.996Z,27.10
2022-08-03T18:42:26.638Z,27.10
2022-08-03T18:44:56.366Z,27.20
2022-08-03T18:47:52.080Z,27.50
2022-08-03T18:50:22.805Z,27.60
2022-08-03T18:53:15.646Z,27.70
2022-08-03T18:56:10.952Z,28.00
2022-08-03T18:59:13.188Z,28.00
2022-08-03T19:02:00.361Z,28.20
2022-08-03T19:04:45.202Z,28.70
2022-08-03T19:07:23.296Z,28.80
2022-08-03T19:09:56.116Z,29.30
2022-08-03T19:12:39.572Z,29.20
2022-08-03T19:15:10.371Z,29.60
2022-08-03T19:17:53.008Z,29.30
2022-08-03T19:20:31.153Z,30.10
2022-08-03T19:23:00.334Z,29.90
2022-08-03T19:25:34.398Z,29.80
2022-08-03T19:28:06.188Z,30.00
2022-08-03T19:30:40.119Z,30.00
2022-08-03T19:33:14.420Z,30.50
2022-08-03T19:35:52.097Z,30.30
2022-08-03T19:38:28.256Z,30.50
2022-08-03T19:41:03.846Z,31.10
2022-08-03T19:43:52.580Z,31.60
2022-08-03T19:46:30.425Z,31.50
2022-08-03T19:49:15.286Z,31.50
2022-08-03T19:52:00.785Z,32.30
2022-08-03T19:54:45.887Z,31.90
2022-08-03T19:57:27.221Z,31.80
2022-08-03T19:59:56.132Z,32.10
2022-08-03T20:02:26.375Z,32.30
2022-08-03T20:04:59.995Z,32.50
2022-08-03T20:07:31.920Z,32.40
2022-08-03T20:10:02.104Z,32.80
2022-08-03T20:12:33.182Z,33.00
2022-08-03T20:15:05.811Z,33.00
2022-08-03T20:17:55.275Z,33.00
2022-08-03T20:20:31.071Z,33.00
2022-08-03T20:23:00.687Z,33.20
2022-08-03T20:25:57.309Z,33.40
2022-08-03T20:28:49.844Z,33.60
2022-08-03T20:31:21.636Z,34.30
2022-08-03T20:33:50.895Z,33.70
2022-08-03T20:36:18.988Z,34.10
2022-08-03T20:38:48.219Z,34.10
2022-08-03T20:41:17.507Z,34.30
2022-08-03T20:43:45.695Z,34.50
2022-08-03T20:46:30.813Z,34.40
2022-08-03T20:49:04.340Z,34.70
2022-08-03T20:51:49.945Z,34.50
2022-08-03T20:57:11.214Z,35.10
2022-08-03T20:59:50.167Z,35.10
2022-08-03T21:02:30.307Z,35.20
2022-08-03T21:05:03.702Z,35.60
2022-08-03T21:08:03.915Z,35.70
2022-08-03T21:10:33.976Z,36.10
2022-08-03T21:13:12.863Z,34.90
2022-08-03T21:13:23.303Z,36.00
2022-08-03T21:16:06.701Z,36.50
2022-08-03T21:18:51.291Z,36.20
2022-08-03T21:21:22.134Z,36.90
2022-08-03T21:23:52.965Z,36.50
2022-08-03T21:26:23.264Z,36.60
2022-08-03T21:28:52.623Z,36.70
2022-08-03T21:31:25.627Z,36.80
2022-08-03T21:34:05.662Z,36.80
2022-08-03T21:36:35.933Z,37.70
2022-08-03T21:39:08.291Z,37.20
2022-08-03T21:41:37.592Z,37.30
2022-08-03T21:44:06.142Z,37.00
2022-08-03T21:46:40.536Z,37.30
2022-08-03T21:50:07.443Z,37.60
2022-08-03T21:52:04.665Z,37.50
2022-08-03T21:54:40.132Z,37.40
2022-08-03T21:57:19.653Z,38.80
2022-08-03T21:59:57.274Z,38.70
2022-08-03T22:02:32.193Z,39.00
2022-08-03T22:04:59.503Z,38.70
2022-08-03T22:07:29.137Z,38.40
2022-08-03T22:09:58.830Z,38.40
2022-08-03T22:12:29.337Z,38.60
2022-08-03T22:15:01.278Z,38.80
2022-08-03T22:17:55.173Z,38.70
2022-08-03T22:20:21.525Z,39.00
2022-08-03T22:22:55.270Z,38.90
2022-08-03T22:25:29.346Z,39.10
2022-08-03T22:28:00.276Z,39.10
2022-08-03T22:30:27.159Z,39.20
2022-08-03T22:32:56.245Z,38.10
2022-08-03T22:35:25.759Z,39.10
2022-08-03T22:37:56.114Z,39.40
2022-08-03T22:40:23.308Z,39.70
2022-08-03T22:42:52.412Z,39.80
2022-08-03T22:46:07.694Z,39.90
2022-08-03T22:48:09.018Z,40.10
2022-08-03T22:50:36.036Z,40.40
2022-08-03T22:53:03.663Z,40.30
2022-08-03T22:55:31.194Z,40.40
2022-08-03T22:57:58.068Z,40.50
2022-08-03T23:00:25.388Z,40.60
2022-08-03T23:02:56.810Z,40.80
2022-08-03T23:06:01.901Z,41.00
2022-08-03T23:08:25.719Z,41.10
2022-08-03T23:10:59.161Z,41.10
2022-08-03T23:13:33.026Z,41.30
2022-08-03T23:16:04.444Z,41.80
2022-08-03T23:18:37.710Z,41.60
2022-08-03T23:21:11.275Z,42.10
2022-08-03T23:23:44.632Z,41.80
2022-08-03T23:26:13.505Z,41.90
2022-08-03T23:28:46.965Z,42.00
2022-08-03T23:31:15.559Z,42.20
2022-08-03T23:33:45.841Z,42.20
2022-08-03T23:36:31.188Z,42.50
2022-08-03T23:39:02.366Z,42.90
2022-08-03T23:41:32.822Z,42.60
2022-08-03T23:44:03.757Z,42.80
2022-08-03T23:46:30.857Z,42.90
2022-08-03T23:49:00.974Z,43.10
2022-08-03T23:51:52.215Z,43.70
2022-08-03T23:54:45.918Z,44.30
2022-08-03T23:57:52.337Z,44.40
